createdAt,value
2018-12-18T06:11:38.283Z,44.40
2018-12-18T06:14:07.570Z,46.70
2018-12-18T06:16:36.576Z,46.00
2018-12-18T06:19:05.311Z,46.00
2018-12-18T06:21:34.568Z,45.80
2018-12-18T06:24:03.711Z,45.80
2018-12-18T06:26:32.775Z,45.70
2018-12-18T06:29:02.395Z,45.60
2018-12-18T06:31:31.138Z,45.50
2018-12-18T06:34:00.184Z,45.50
2018-12-18T06:36:29.076Z,45.50
2018-12-18T06:38:59.284Z,45.40
2018-12-18T06:41:28.891Z,45.30
2018-12-18T06:43:58.479Z,45.30
2018-12-18T06:46:28.692Z,45.20
2018-12-18T06:48:58.199Z,45.30
2018-12-18T06:51:27.284Z,45.20
2018-12-18T06:53:55.984Z,45.10
2018-12-18T06:56:24.819Z,45.10
2018-12-18T06:58:54.212Z,45.10
2018-12-18T07:01:23.340Z,45.10
2018-12-18T07:03:52.543Z,45.10
2018-12-18T07:06:22.627Z,45.00
2018-12-18T07:08:51.769Z,45.00
2018-12-18T07:11:21.021Z,44.90
2018-12-18T07:13:50.500Z,45.00
2018-12-18T07:16:19.447Z,45.00
2018-12-18T07:18:50.339Z,44.90
2018-12-18T07:21:19.059Z,45.00
2018-12-18T07:23:49.516Z,44.90
2018-12-18T07:26:19.616Z,44.90
2018-12-18T07:28:49.986Z,44.60
2018-12-18T07:31:20.067Z,44.80
2018-12-18T07:33:49.204Z,44.80
2018-12-18T07:36:19.164Z,44.70
2018-12-18T07:38:48.150Z,44.70
2018-12-18T07:41:17.975Z,44.70
2018-12-18T07:43:47.108Z,44.80
2018-12-18T07:46:17.137Z,44.90
2018-12-18T07:48:46.358Z,45.10
2018-12-18T07:51:15.590Z,45.20
2018-12-18T07:53:45.008Z,45.30
2018-12-18T07:56:14.164Z,45.40
2018-12-18T07:58:43.621Z,45.60
2018-12-18T08:01:14.596Z,45.60
2018-12-18T08:03:44.083Z,45.90
2018-12-18T08:06:13.557Z,46.10
2018-12-18T08:08:42.643Z,46.00
2018-12-18T08:11:12.125Z,46.20
2018-12-18T08:13:41.988Z,46.30
2018-12-18T08:16:11.495Z,46.10
2018-12-18T08:18:40.479Z,46.30
2018-12-18T08:21:10.159Z,46.30
2018-12-18T08:23:39.777Z,46.40
2018-12-18T08:26:09.374Z,46.30
2018-12-18T08:28:38.823Z,46.20
2018-12-18T08:31:07.807Z,46.20
2018-12-18T08:33:37.279Z,46.40
2018-12-18T08:36:07.388Z,46.40
2018-12-18T08:38:36.447Z,46.30
2018-12-18T08:41:05.963Z,46.30
2018-12-18T08:43:35.083Z,46.30
2018-12-18T08:46:10.048Z,46.10
2018-12-18T08:48:34.336Z,46.00
2018-12-18T08:51:03.822Z,46.40
2018-12-18T08:53:32.968Z,46.40
2018-12-18T08:56:02.601Z,45.80
2018-12-18T08:58:33.167Z,45.70
2018-12-18T09:01:02.747Z,46.40
2018-12-18T09:03:32.115Z,45.60
2018-12-18T09:06:01.344Z,45.60
2018-12-18T09:08:30.388Z,45.60
2018-12-18T09:10:59.849Z,45.60
2018-12-18T09:13:29.492Z,45.60
2018-12-18T09:16:00.046Z,45.50
2018-12-18T09:18:29.596Z,45.40
2018-12-18T09:20:59.061Z,45.40
2018-12-18T09:23:28.533Z,45.40
2018-12-18T09:25:58.959Z,45.50
2018-12-18T09:28:28.467Z,45.30
2018-12-18T09:30:57.643Z,45.30
2018-12-18T09:33:26.655Z,45.40
2018-12-18T09:35:56.183Z,45.30
2018-12-18T09:39:31.073Z,45.30
2018-12-18T09:42:05.672Z,45.30
2018-12-18T09:44:34.379Z,45.20
2018-12-18T09:47:03.573Z,45.30
2018-12-18T09:49:33.559Z,45.30
2018-12-18T09:52:02.970Z,45.30
2018-12-18T09:54:32.253Z,45.20
2018-12-18T09:57:01.645Z,45.30
2018-12-18T09:59:30.507Z,45.30
2018-12-18T10:02:00.020Z,45.30
2018-12-18T10:04:29.824Z,45.20
2018-12-18T10:06:59.412Z,45.80
2018-12-18T10:09:28.864Z,45.10
2018-12-18T10:11:58.444Z,45.20
2018-12-18T10:14:27.620Z,45.20
2018-12-18T10:16:57.097Z,45.20
2018-12-18T10:19:26.111Z,45.30
2018-12-18T10:21:55.380Z,45.30
2018-12-18T10:24:25.556Z,45.30
2018-12-18T10:26:56.399Z,45.30
2018-12-18T10:29:25.991Z,45.30
2018-12-18T10:31:55.733Z,45.10
2018-12-18T10:34:25.192Z,45.00
2018-12-18T10:36:54.733Z,45.40
2018-12-18T10:39:24.920Z,45.20
2018-12-18T10:41:54.032Z,45.20
2018-12-18T10:44:23.164Z,45.20
2018-12-18T10:46:52.055Z,45.00
2018-12-18T10:49:21.534Z,45.20
2018-12-18T10:51:50.677Z,45.20
2018-12-18T10:54:21.005Z,44.80
2018-12-18T10:56:50.260Z,45.80
2018-12-18T10:59:19.584Z,45.10
2018-12-18T11:01:50.291Z,45.30
2018-12-18T11:04:20.427Z,45.30
2018-12-18T11:06:50.448Z,45.30
2018-12-18T11:09:19.929Z,45.20
2018-12-18T11:11:48.976Z,45.30
2018-12-18T11:14:19.736Z,45.30
2018-12-18T11:16:49.460Z,45.30
2018-12-18T11:19:18.940Z,45.20
2018-12-18T11:21:48.113Z,45.30
2018-12-18T11:24:17.637Z,45.10
2018-12-18T11:26:47.487Z,45.10
2018-12-18T11:29:17.155Z,45.20
2018-12-18T11:31:46.552Z,45.20
2018-12-18T11:34:16.196Z,45.10
2018-12-18T11:36:45.208Z,45.20
2018-12-18T11:39:14.427Z,45.40
2018-12-18T11:41:43.024Z,45.10
2018-12-18T11:44:13.526Z,45.10
2018-12-18T11:49:11.452Z,45.10
2018-12-18T11:51:40.612Z,45.10
2018-12-18T11:54:10.037Z,45.10
2018-12-18T11:56:39.304Z,45.10
2018-12-18T11:59:09.163Z,45.10
2018-12-18T12:01:38.393Z,45.10
2018-12-18T12:04:07.367Z,45.10
2018-12-18T12:06:36.766Z,44.60
2018-12-18T12:09:08.060Z,45.10
2018-12-18T12:11:37.540Z,45.10
2018-12-18T12:14:07.704Z,45.20
2018-12-18T12:16:37.183Z,45.10
2018-12-18T12:19:06.300Z,45.20
2018-12-18T12:21:35.729Z,45.20
2018-12-18T12:24:05.120Z,45.10
2018-12-18T12:26:37.091Z,45.00
2018-12-18T12:29:06.587Z,45.10
2018-12-18T12:31:37.105Z,45.20
2018-12-18T12:34:06.439Z,45.20
2018-12-18T12:36:36.608Z,45.20
2018-12-18T12:39:16.785Z,45.10
2018-12-18T12:41:45.484Z,45.20
2018-12-18T12:44:14.975Z,45.50
2018-12-18T12:46:44.096Z,45.70
2018-12-18T12:49:13.621Z,45.80
2018-12-18T12:51:42.651Z,45.80
2018-12-18T12:54:12.094Z,46.20
2018-12-18T12:56:41.243Z,46.70
2018-12-18T12:59:10.476Z,47.00
2018-12-18T13:01:42.305Z,47.50
2018-12-18T13:04:09.860Z,47.70
2018-12-18T13:06:39.796Z,47.80
2018-12-18T13:09:10.160Z,47.90
2018-12-18T13:11:41.189Z,47.70
2018-12-18T13:14:11.355Z,47.70
2018-12-18T13:16:40.520Z,47.70
2018-12-18T13:19:09.936Z,47.60
2018-12-18T13:21:40.257Z,48.00
2018-12-18T13:24:09.497Z,48.40
2018-12-18T13:26:38.934Z,48.50
2018-12-18T13:29:08.425Z,48.80
2018-12-18T13:31:37.977Z,49.30
2018-12-18T13:34:06.740Z,49.20
2018-12-18T13:36:35.477Z,49.50
2018-12-18T13:39:06.153Z,49.60
2018-12-18T13:41:35.182Z,49.60
2018-12-18T13:44:04.236Z,49.20
2018-12-18T13:46:33.608Z,49.00
2018-12-18T13:49:02.436Z,49.10
2018-12-18T13:51:31.623Z,49.10
2018-12-18T13:54:01.012Z,49.10
2018-12-18T13:56:30.999Z,48.70
2018-12-18T13:59:00.450Z,48.90
2018-12-18T14:01:28.794Z,48.70
2018-12-18T14:03:59.045Z,48.80
2018-12-18T14:06:27.746Z,48.80
2018-12-18T14:08:57.742Z,48.60
2018-12-18T14:11:26.931Z,48.30
2018-12-18T14:13:55.971Z,48.30
2018-12-18T14:16:25.388Z,48.10
2018-12-18T14:18:54.212Z,48.00
2018-12-18T14:21:23.196Z,47.90
2018-12-18T14:23:52.330Z,47.80
2018-12-18T14:26:24.282Z,47.80
2018-12-18T14:28:52.395Z,47.90
2018-12-18T14:31:22.180Z,47.70
2018-12-18T14:33:51.575Z,47.80
2018-12-18T14:36:21.004Z,47.70
2018-12-18T14:38:49.903Z,47.30
2018-12-18T14:41:19.463Z,47.30
2018-12-18T14:43:48.609Z,47.10
2018-12-18T14:46:17.704Z,46.90
2018-12-18T14:48:46.402Z,47.10
2018-12-18T14:51:15.492Z,47.00
2018-12-18T14:53:44.336Z,47.00
2018-12-18T14:56:13.532Z,46.80
2018-12-18T14:58:42.949Z,46.80
2018-12-18T15:01:12.012Z,46.60
2018-12-18T15:03:41.424Z,46.50
2018-12-18T15:06:10.861Z,46.60
2018-12-18T15:08:41.555Z,46.60
2018-12-18T15:11:11.716Z,46.40
2018-12-18T15:13:40.825Z,46.30
2018-12-18T15:16:10.225Z,46.40
2018-12-18T15:18:40.529Z,46.60
2018-12-18T15:21:11.568Z,46.20
2018-12-18T15:23:41.621Z,46.90
2018-12-18T15:26:11.765Z,46.10
2018-12-18T15:28:40.888Z,46.00
2018-12-18T15:31:10.364Z,46.10
2018-12-18T15:33:39.974Z,46.00
2018-12-18T15:36:10.142Z,45.90
2018-12-18T15:38:39.780Z,45.90
2018-12-18T15:41:09.444Z,46.00
2018-12-18T15:43:38.639Z,46.10
2018-12-18T15:46:07.719Z,45.90
2018-12-18T15:48:37.288Z,46.10
2018-12-18T15:51:06.080Z,45.90
2018-12-18T15:53:36.191Z,45.90
2018-12-18T15:56:06.456Z,45.90
2018-12-18T15:58:36.955Z,45.90
2018-12-18T16:01:05.753Z,45.90
2018-12-18T16:03:36.535Z,45.70
2018-12-18T16:06:06.193Z,45.80
2018-12-18T16:08:35.356Z,45.80
2018-12-18T16:11:03.956Z,45.70
2018-12-18T16:13:33.520Z,45.60
2018-12-18T16:16:02.584Z,45.50
2018-12-18T16:18:31.957Z,45.60
2018-12-18T16:21:01.592Z,45.70
2018-12-18T16:23:31.503Z,45.40
2018-12-18T16:28:29.460Z,45.50
2018-12-18T16:30:58.314Z,45.50
2018-12-18T16:33:27.770Z,45.40
2018-12-18T16:35:56.475Z,45.40
2018-12-18T16:38:25.208Z,45.30
2018-12-18T16:40:54.805Z,45.30
2018-12-18T16:43:24.023Z,45.50
2018-12-18T16:45:53.428Z,45.40
2018-12-18T16:48:22.164Z,45.30
2018-12-18T16:50:51.064Z,45.30
2018-12-18T16:53:20.157Z,45.80
2018-12-18T16:55:49.569Z,45.30
2018-12-18T16:58:19.007Z,45.30
2018-12-18T17:00:48.192Z,45.10
2018-12-18T17:03:16.640Z,45.40
2018-12-18T17:05:45.351Z,45.20
2018-12-18T17:08:15.257Z,44.90
2018-12-18T17:10:43.964Z,45.00
2018-12-18T17:13:12.872Z,45.00
2018-12-18T17:15:42.031Z,45.00
2018-12-18T17:18:12.004Z,45.00
2018-12-18T17:20:41.645Z,45.10
2018-12-18T17:23:11.065Z,45.30
2018-12-18T17:25:40.744Z,45.10
2018-12-18T17:28:11.048Z,44.90
2018-12-18T17:33:08.443Z,45.00
2018-12-18T17:35:41.335Z,44.70
2018-12-18T17:38:10.592Z,44.70
2018-12-18T17:40:39.323Z,44.60
2018-12-18T17:43:08.551Z,44.70
2018-12-18T17:45:38.131Z,44.90
2018-12-18T17:48:07.979Z,44.90
2018-12-18T17:50:38.968Z,44.90
2018-12-18T17:53:08.074Z,44.70
2018-12-18T17:55:37.646Z,44.50
2018-12-18T17:58:07.968Z,44.50
2018-12-18T18:00:38.392Z,44.30
2018-12-18T18:03:07.484Z,44.50
2018-12-18T18:05:37.104Z,44.40
2018-12-18T18:08:06.572Z,44.50
2018-12-18T18:10:35.695Z,44.50
2018-12-18T18:13:05.323Z,44.10
2018-12-18T18:15:34.425Z,44.30
2018-12-18T18:18:03.145Z,44.40
2018-12-18T18:20:32.636Z,44.30
2018-12-18T18:23:02.079Z,44.30
2018-12-18T18:25:30.783Z,44.20
2018-12-18T18:27:59.909Z,44.30
2018-12-18T18:30:28.936Z,44.40
2018-12-18T18:32:58.136Z,44.20
2018-12-18T18:35:27.033Z,44.00
2018-12-18T18:37:56.567Z,44.00
2018-12-18T18:40:25.567Z,44.00
2018-12-18T18:42:54.713Z,44.20
2018-12-18T18:45:23.762Z,44.10
2018-12-18T18:50:21.804Z,44.20
2018-12-18T18:52:51.319Z,44.10
2018-12-18T18:55:20.972Z,44.30
2018-12-18T18:57:50.420Z,44.40
2018-12-18T19:00:19.657Z,44.20
2018-12-18T19:02:48.818Z,44.40
2018-12-18T19:05:17.910Z,44.70
2018-12-18T19:07:46.813Z,44.10
2018-12-18T19:10:16.079Z,44.50
2018-12-18T19:12:45.275Z,44.00
2018-12-18T19:15:14.543Z,44.20
2018-12-18T19:17:43.777Z,44.10
2018-12-18T19:20:12.790Z,43.90
2018-12-18T19:22:42.127Z,44.10
2018-12-18T19:25:11.587Z,44.20
2018-12-18T19:27:40.306Z,44.00
2018-12-18T19:30:08.893Z,43.90
2018-12-18T19:32:37.619Z,43.70
2018-12-18T19:35:06.910Z,43.80
2018-12-18T19:37:35.344Z,43.90
2018-12-18T19:40:04.644Z,43.60
2018-12-18T19:42:33.917Z,44.00
2018-12-18T19:45:02.742Z,43.90
2018-12-18T19:47:32.197Z,43.80
2018-12-18T19:50:01.616Z,43.90
2018-12-18T19:52:30.762Z,43.80
2018-12-18T19:54:59.591Z,43.40
2018-12-18T19:57:28.608Z,43.60
2018-12-18T19:59:58.076Z,43.70
2018-12-18T20:02:27.546Z,43.70
2018-12-18T20:04:56.657Z,43.80
2018-12-18T20:07:25.826Z,43.80
2018-12-18T20:09:54.940Z,43.60
2018-12-18T20:12:24.300Z,43.70
2018-12-18T20:14:53.375Z,43.90
2018-12-18T20:17:22.750Z,43.80
2018-12-18T20:19:52.276Z,43.60
2018-12-18T20:22:21.573Z,43.80
2018-12-18T20:24:50.652Z,43.60
2018-12-18T20:27:19.852Z,43.80
2018-12-18T20:29:49.376Z,43.90
2018-12-18T20:32:18.832Z,43.60
2018-12-18T20:34:48.263Z,44.20
2018-12-18T20:37:18.423Z,43.60
2018-12-18T20:39:46.592Z,43.80
2018-12-18T20:42:15.615Z,43.70
2018-12-18T20:44:45.003Z,43.50
2018-12-18T20:47:14.003Z,43.60
2018-12-18T20:49:43.484Z,43.70
2018-12-18T20:52:12.885Z,43.40
2018-12-18T20:57:10.699Z,43.50
2018-12-18T20:59:40.166Z,43.40
2018-12-18T21:02:09.556Z,43.40
2018-12-18T21:04:38.277Z,43.20
2018-12-18T21:07:07.378Z,43.20
2018-12-18T21:09:37.039Z,43.40
2018-12-18T21:12:06.480Z,43.40
2018-12-18T21:14:35.641Z,44.00
2018-12-18T21:17:04.768Z,43.60
2018-12-18T21:19:34.208Z,43.50
2018-12-18T21:22:03.497Z,44.10
2018-12-18T21:24:32.086Z,43.20
2018-12-18T21:27:00.908Z,43.50
2018-12-18T21:29:30.364Z,43.40
2018-12-18T21:31:59.520Z,43.40
2018-12-18T21:34:28.597Z,43.30
2018-12-18T21:36:57.832Z,43.60
2018-12-18T21:39:26.984Z,44.20
2018-12-18T21:41:56.214Z,43.60
2018-12-18T21:44:24.950Z,43.80
2018-12-18T21:46:53.997Z,43.40
2018-12-18T21:49:22.726Z,43.20
2018-12-18T21:51:51.455Z,43.10
2018-12-18T21:54:20.567Z,43.00
2018-12-18T21:56:50.032Z,43.30
